Time;durP1;ratioP1;P1;durP2;ratioP2;P2;SDS_P1;SDS_P2;PMS_P1;PMS_P2;Temp;Humidity;BMP_temperature;BMP_pressure;BME280_temperature;BME280_humidity;BME280_pressure;Samples;Min_cycle;Max_cycle;Signal;HPM_P1;HPM_P2
2022/04/24 00:00:34;;;;;;;14.75;7.60;;;13.00;84.10;;;;;;6185476;28;20062;-77
2022/04/24 00:03:35;;;;;;;13.68;7.68;;;13.00;84.20;;;;;;6200112;28;20038;-80
2022/04/24 00:06:39;;;;;;;12.88;7.95;;;12.90;84.00;;;;;;6205450;28;20127;-81
2022/04/24 00:09:41;;;;;;;10.50;7.60;;;12.90;84.10;;;;;;6205829;28;20058;-81
2022/04/24 00:12:44;;;;;;;17.30;8.60;;;12.90;84.10;;;;;;6203624;28;20054;-80
2022/04/24 00:15:46;;;;;;;11.32;8.05;;;12.90;84.20;;;;;;6198629;28;20380;-80
2022/04/24 00:18:48;;;;;;;13.10;8.85;;;12.90;84.10;;;;;;6205073;28;20496;-80
2022/04/24 00:21:50;;;;;;;13.50;6.85;;;12.90;83.90;;;;;;6206127;28;20066;-81
2022/04/24 00:24:52;;;;;;;12.02;7.75;;;13.00;83.70;;;;;;6206187;28;20057;-80
2022/04/24 00:27:55;;;;;;;11.07;7.57;;;13.10;83.50;;;;;;6205179;28;20415;-81
2022/04/24 00:30:56;;;;;;;13.15;7.53;;;13.10;83.30;;;;;;6205063;28;20048;-79
2022/04/24 00:33:58;;;;;;;10.65;7.22;;;13.10;83.30;;;;;;6204533;28;20050;-79
2022/04/24 00:37:00;;;;;;;15.65;7.95;;;13.10;83.30;;;;;;6205371;28;20050;-81
2022/04/24 00:40:02;;;;;;;11.70;6.97;;;13.20;83.10;;;;;;6204632;28;20046;-81
2022/04/24 00:43:05;;;;;;;11.45;6.85;;;13.10;83.00;;;;;;6190415;28;20055;-82
2022/04/24 00:46:14;;;;;;;10.15;7.20;;;13.20;82.80;;;;;;6180189;28;20065;-79
2022/04/24 00:49:16;;;;;;;13.52;7.65;;;13.20;82.70;;;;;;6180709;28;20061;-80
2022/04/24 00:52:19;;;;;;;11.32;6.70;;;13.30;82.30;;;;;;6180848;28;20133;-81
2022/04/24 00:55:24;;;;;;;11.63;6.97;;;13.40;82.30;;;;;;6179914;28;20043;-80
2022/04/24 00:58:27;;;;;;;12.43;7.88;;;13.40;82.10;;;;;;6180318;28;20431;-79
2022/04/24 01:01:30;;;;;;;11.13;7.43;;;13.40;82.00;;;;;;6180374;28;20141;-81
2022/04/24 01:04:35;;;;;;;13.73;7.75;;;13.40;81.90;;;;;;6180451;28;20043;-81
2022/04/24 01:07:36;;;;;;;12.80;6.90;;;13.40;81.90;;;;;;6179901;28;20047;-80
2022/04/24 01:10:38;;;;;;;12.73;7.45;;;13.50;81.70;;;;;;6179640;28;20469;-79
2022/04/24 01:13:41;;;;;;;11.63;6.68;;;13.50;81.60;;;;;;6189703;28;20424;-79
2022/04/24 01:16:44;;;;;;;11.18;6.65;;;13.60;81.50;;;;;;6204581;28;20050;-81
2022/04/24 01:19:46;;;;;;;10.52;7.07;;;13.60;81.30;;;;;;6203606;28;20053;-81
2022/04/24 01:22:50;;;;;;;9.63;7.45;;;13.70;81.20;;;;;;6202789;28;20125;-79
2022/04/24 01:25:51;;;;;;;10.57;7.40;;;13.70;81.00;;;;;;6201919;28;20120;-81
2022/04/24 01:28:53;;;;;;;10.15;6.53;;;13.70;80.70;;;;;;6202099;28;20061;-80
2022/04/24 01:31:55;;;;;;;9.18;6.55;;;13.80;80.60;;;;;;6201834;28;20106;-79
2022/04/24 01:34:57;;;;;;;10.38;6.75;;;13.80;80.50;;;;;;6202084;28;20602;-81
2022/04/24 01:38:00;;;;;;;8.57;6.07;;;13.90;80.40;;;;;;6201471;28;20044;-81
2022/04/24 01:41:01;;;;;;;11.80;6.97;;;13.90;80.30;;;;;;6202790;28;20050;-79
2022/04/24 01:44:04;;;;;;;11.82;5.95;;;13.90;80.30;;;;;;6193115;28;20126;-77
2022/04/24 01:47:06;;;;;;;13.45;6.93;;;13.90;80.10;;;;;;6204911;28;20070;-79
2022/04/24 01:50:08;;;;;;;10.85;6.55;;;13.90;80.30;;;;;;6207281;28;20078;-79
2022/04/24 01:53:11;;;;;;;10.35;7.00;;;13.90;80.20;;;;;;6207195;28;20058;-79
2022/04/24 01:56:14;;;;;;;10.80;6.22;;;13.90;80.30;;;;;;6206573;28;20056;-80
2022/04/24 01:59:15;;;;;;;10.70;6.88;;;13.90;80.50;;;;;;6206223;28;20426;-81
2022/04/24 02:02:17;;;;;;;10.82;6.43;;;13.90;81.20;;;;;;6206288;28;20097;-81
2022/04/24 02:05:19;;;;;;;11.23;7.07;;;13.90;81.90;;;;;;6206182;28;20515;-80
2022/04/24 02:08:22;;;;;;;12.00;6.93;;;13.80;83.30;;;;;;6207311;28;20061;-79
2022/04/24 02:11:24;;;;;;;11.20;7.47;;;13.70;84.50;;;;;;6206278;28;20399;-82
2022/04/24 02:14:26;;;;;;;13.30;7.70;;;13.60;84.70;;;;;;6206298;28;20396;-80
2022/04/24 02:17:27;;;;;;;14.95;8.35;;;13.60;85.10;;;;;;6206942;28;20056;-81
2022/04/24 02:20:29;;;;;;;12.65;7.15;;;13.50;85.70;;;;;;6206547;28;20396;-79
2022/04/24 02:23:33;;;;;;;12.75;7.82;;;13.50;85.90;;;;;;6206253;28;20477;-80
2022/04/24 02:26:34;;;;;;;11.93;7.28;;;13.60;86.10;;;;;;6206407;28;20047;-80
2022/04/24 02:29:36;;;;;;;10.25;6.30;;;13.60;85.80;;;;;;6206931;28;20050;-79
2022/04/24 02:32:38;;;;;;;10.70;6.90;;;13.60;85.90;;;;;;6207265;28;20136;-78
2022/04/24 02:35:40;;;;;;;10.60;6.85;;;13.60;85.70;;;;;;6206758;28;20125;-80
2022/04/24 02:38:43;;;;;;;11.45;8.10;;;13.60;86.00;;;;;;6206689;28;20444;-81
2022/04/24 02:41:45;;;;;;;12.50;7.55;;;13.70;86.10;;;;;;6207438;28;20038;-80
2022/04/24 02:44:47;;;;;;;10.95;7.03;;;13.70;86.00;;;;;;6196282;28;20050;-80
2022/04/24 02:47:48;;;;;;;16.35;7.60;;;13.70;85.80;;;;;;6187422;28;20126;-80
2022/04/24 02:50:50;;;;;;;10.52;7.05;;;13.70;85.80;;;;;;6207074;28;20047;-80
2022/04/24 02:53:53;;;;;;;11.63;7.25;;;13.70;86.10;;;;;;6207574;28;20053;-79
2022/04/24 02:56:55;;;;;;;10.55;6.88;;;13.70;85.20;;;;;;6206852;28;20050;-81
2022/04/24 02:59:57;;;;;;;9.00;6.10;;;13.70;85.00;;;;;;6206905;28;20050;-80
2022/04/24 03:02:59;;;;;;;9.18;6.00;;;13.50;85.10;;;;;;6204908;28;20069;-78
2022/04/24 03:06:00;;;;;;;12.27;6.63;;;13.30;85.90;;;;;;6207835;28;20520;-80
2022/04/24 03:09:04;;;;;;;13.02;7.85;;;13.00;86.80;;;;;;6208284;28;20623;-80
2022/04/24 03:12:07;;;;;;;9.40;6.25;;;12.80;88.00;;;;;;6208482;28;20046;-81
2022/04/24 03:15:10;;;;;;;10.57;7.05;;;12.60;88.50;;;;;;6209610;28;20042;-77
2022/04/24 03:18:12;;;;;;;11.82;7.68;;;12.50;89.10;;;;;;6209509;28;20047;-80
2022/04/24 03:21:14;;;;;;;13.48;7.80;;;12.50;89.30;;;;;;6207440;28;20077;-80
2022/04/24 03:24:17;;;;;;;10.95;7.43;;;12.60;89.30;;;;;;6205303;28;20061;-80
2022/04/24 03:27:18;;;;;;;8.85;6.40;;;12.70;89.10;;;;;;6205671;28;20050;-80
2022/04/24 03:30:20;;;;;;;13.18;8.30;;;12.90;88.70;;;;;;6204787;28;20042;-79
2022/04/24 03:33:22;;;;;;;11.60;7.03;;;13.00;88.90;;;;;;6205354;28;20054;-79
2022/04/24 03:36:25;;;;;;;9.98;6.88;;;13.00;89.00;;;;;;6204810;28;20082;-81
2022/04/24 03:39:28;;;;;;;14.07;7.80;;;13.20;89.50;;;;;;6204338;28;20448;-80
2022/04/24 03:42:30;;;;;;;12.07;8.48;;;13.20;89.50;;;;;;6210532;28;20050;-78
2022/04/24 03:45:31;;;;;;;10.95;7.63;;;13.20;90.00;;;;;;6206597;28;20049;-82
2022/04/24 03:48:33;;;;;;;14.80;8.40;;;13.10;90.10;;;;;;6185940;28;20225;-81
2022/04/24 03:51:35;;;;;;;19.38;9.77;;;13.10;89.80;;;;;;6182205;28;20075;-81
2022/04/24 03:54:38;;;;;;;15.15;10.05;;;13.20;89.50;;;;;;6182741;28;20042;-81
2022/04/24 03:57:40;;;;;;;16.90;11.43;;;13.20;89.60;;;;;;6181954;28;20050;-78
2022/04/24 04:00:42;;;;;;;18.70;10.63;;;13.10;89.90;;;;;;6182503;28;20073;-82
2022/04/24 04:03:44;;;;;;;20.45;11.27;;;13.20;90.10;;;;;;6181557;28;20062;-83
2022/04/24 04:06:46;;;;;;;17.17;10.32;;;13.20;90.10;;;;;;6182292;28;20134;-82
2022/04/24 04:09:49;;;;;;;17.15;11.23;;;13.20;90.10;;;;;;6181059;28;20508;-79
2022/04/24 04:12:51;;;;;;;17.73;11.68;;;13.10;90.20;;;;;;6181374;28;20066;-82
2022/04/24 04:15:52;;;;;;;20.55;11.80;;;13.20;90.30;;;;;;6180512;28;20129;-81
2022/04/24 04:18:55;;;;;;;18.08;12.15;;;13.20;90.50;;;;;;6180444;28;20428;-80
2022/04/24 04:21:56;;;;;;;20.13;13.02;;;13.20;90.80;;;;;;6181158;28;20417;-80
2022/04/24 04:24:59;;;;;;;21.00;11.18;;;13.00;91.00;;;;;;6181334;28;20053;-80
2022/04/24 04:28:01;;;;;;;15.95;11.02;;;13.00;91.10;;;;;;6180965;28;20047;-81
2022/04/24 04:31:03;;;;;;;24.50;14.00;;;13.00;91.30;;;;;;6180691;28;20424;-81
2022/04/24 04:34:05;;;;;;;20.42;12.98;;;13.00;91.40;;;;;;6180782;28;20055;-81
2022/04/24 04:37:07;;;;;;;18.02;11.50;;;13.00;91.50;;;;;;6180591;28;20720;-80
2022/04/24 04:40:12;;;;;;;21.05;12.75;;;12.90;91.60;;;;;;6179963;28;20603;-82
2022/04/24 04:43:14;;;;;;;18.90;11.65;;;12.90;91.80;;;;;;6179687;28;20054;-81
2022/04/24 04:46:16;;;;;;;24.10;13.52;;;12.80;91.90;;;;;;6185093;28;20069;-81
2022/04/24 04:49:18;;;;;;;19.73;11.52;;;12.90;92.10;;;;;;6180868;28;20094;-81
2022/04/24 04:52:20;;;;;;;26.63;14.05;;;12.90;92.10;;;;;;6180555;28;20055;-81
2022/04/24 04:55:23;;;;;;;20.85;12.65;;;12.90;92.30;;;;;;6179534;28;20051;-81
2022/04/24 04:58:25;;;;;;;19.88;11.13;;;12.80;92.50;;;;;;6179642;28;20513;-82
2022/04/24 05:01:26;;;;;;;14.45;8.73;;;12.80;92.70;;;;;;6179625;28;20158;-81
2022/04/24 05:04:28;;;;;;;14.15;8.13;;;12.70;93.00;;;;;;6179444;28;20053;-82
2022/04/24 05:07:30;;;;;;;8.10;5.60;;;12.60;93.20;;;;;;6179241;28;20042;-81
2022/04/24 05:10:33;;;;;;;8.55;5.05;;;12.50;93.40;;;;;;6178603;28;20629;-82
2022/04/24 05:13:35;;;;;;;12.38;5.05;;;12.40;93.70;;;;;;6179413;28;20090;-82
2022/04/24 05:16:36;;;;;;;7.35;3.95;;;12.30;94.80;;;;;;6179067;28;20053;-82
2022/04/24 05:19:38;;;;;;;8.73;3.75;;;12.20;95.10;;;;;;6179272;28;20053;-80
2022/04/24 05:22:41;;;;;;;5.78;3.67;;;12.00;95.80;;;;;;6181833;28;20460;-82
2022/04/24 05:25:44;;;;;;;6.85;3.63;;;11.90;96.00;;;;;;6184068;28;20075;-81
2022/04/24 05:28:46;;;;;;;7.95;4.05;;;11.80;96.60;;;;;;6184601;28;20061;-82
2022/04/24 05:31:48;;;;;;;9.60;5.30;;;11.70;96.50;;;;;;6183610;28;20043;-83
2022/04/24 05:34:50;;;;;;;7.50;3.78;;;11.60;96.80;;;;;;6183170;28;20042;-82
2022/04/24 05:37:52;;;;;;;9.05;4.97;;;11.50;97.10;;;;;;6186482;28;20118;-81
2022/04/24 05:40:55;;;;;;;7.05;4.25;;;11.60;97.30;;;;;;6184500;28;20050;-82
2022/04/24 05:43:57;;;;;;;5.43;2.88;;;11.50;97.50;;;;;;6182911;28;20532;-82
2022/04/24 05:46:59;;;;;;;3.90;1.90;;;11.50;97.80;;;;;;6186352;28;20049;-82
2022/04/24 05:50:01;;;;;;;3.45;1.73;;;11.40;97.80;;;;;;6201272;28;20185;-82
2022/04/24 05:53:03;;;;;;;3.90;1.45;;;11.40;97.70;;;;;;6208874;28;20046;-82
2022/04/24 05:56:06;;;;;;;8.52;1.58;;;11.20;98.10;;;;;;6207758;28;20465;-82
2022/04/24 05:59:08;;;;;;;3.63;1.13;;;11.20;98.60;;;;;;6207196;28;20058;-80
2022/04/24 06:02:09;;;;;;;4.57;1.75;;;11.10;99.70;;;;;;6207976;28;20109;-83
2022/04/24 06:05:11;;;;;;;1.80;1.00;;;11.00;99.90;;;;;;6207999;28;20046;-82
2022/04/24 06:08:13;;;;;;;2.83;1.30;;;11.00;99.90;;;;;;6208084;28;20049;-82
2022/04/24 06:11:17;;;;;;;2.15;1.20;;;11.10;99.90;;;;;;6207733;28;20046;-82
2022/04/24 06:14:19;;;;;;;3.08;1.48;;;11.20;99.90;;;;;;6207834;28;20070;-82
2022/04/24 06:17:21;;;;;;;4.78;2.03;;;11.20;99.90;;;;;;6207149;28;20047;-82
2022/04/24 06:20:25;;;;;;;2.58;1.35;;;11.30;99.90;;;;;;6208223;28;20054;-80
2022/04/24 06:23:28;;;;;;;3.22;1.30;;;11.20;99.90;;;;;;6208361;28;20133;-83
2022/04/24 06:26:32;;;;;;;6.20;1.63;;;11.10;99.90;;;;;;6208499;28;20057;-83
2022/04/24 06:29:33;;;;;;;7.70;2.10;;;11.10;99.90;;;;;;6220649;28;20049;-82
2022/04/24 06:32:39;;;;;;;3.72;1.77;;;11.10;99.90;;;;;;6206366;28;20054;-80
2022/04/24 06:35:41;;;;;;;3.15;1.70;;;11.00;99.90;;;;;;6205334;28;20411;-78
2022/04/24 06:38:43;;;;;;;9.35;1.52;;;11.10;99.90;;;;;;6203899;28;20065;-82
2022/04/24 06:41:46;;;;;;;4.13;2.10;;;11.20;99.90;;;;;;6208200;28;20516;-83
2022/04/24 06:44:48;;;;;;;3.90;2.13;;;11.20;99.90;;;;;;6209082;28;20050;-81
2022/04/24 06:47:49;;;;;;;5.88;1.48;;;11.30;99.90;;;;;;6206096;28;20045;-84
2022/04/24 06:50:51;;;;;;;11.05;1.70;;;11.20;99.90;;;;;;6205871;28;20088;-83
2022/04/24 06:53:53;;;;;;;3.45;1.67;;;11.30;99.90;;;;;;6206441;28;20120;-83
2022/04/24 06:57:01;;;;;;;5.60;1.58;;;11.30;99.90;;;;;;6206283;28;20184;-84
2022/04/24 07:00:04;;;;;;;4.38;1.80;;;11.30;99.90;;;;;;6205743;28;20056;-82
2022/04/24 07:03:09;;;;;;;5.10;1.85;;;11.20;99.90;;;;;;6205399;28;20535;-82
2022/04/24 07:06:11;;;;;;;3.83;1.50;;;11.40;99.90;;;;;;6205930;28;20069;-82
2022/04/24 07:09:13;;;;;;;7.32;2.25;;;11.30;99.90;;;;;;6205974;28;20146;-82
2022/04/24 07:12:16;;;;;;;3.00;1.42;;;11.30;99.90;;;;;;6211121;28;20133;-81
2022/04/24 07:15:19;;;;;;;10.27;2.03;;;11.30;99.90;;;;;;6181697;28;20053;-82
2022/04/24 07:18:22;;;;;;;6.40;2.10;;;11.40;99.90;;;;;;6201596;28;20069;-80
2022/04/24 07:21:25;;;;;;;8.57;2.00;;;11.40;99.90;;;;;;6207690;28;20058;-81
2022/04/24 07:24:27;;;;;;;3.38;2.00;;;11.40;99.90;;;;;;6201102;28;20157;-83
2022/04/24 07:27:30;;;;;;;9.32;2.92;;;11.50;99.90;;;;;;6207616;28;20531;-81
2022/04/24 07:30:32;;;;;;;7.28;2.80;;;11.60;99.90;;;;;;6204998;28;20050;-80
2022/04/24 07:33:34;;;;;;;7.72;2.90;;;11.70;99.90;;;;;;6204911;28;20150;-80
2022/04/24 07:36:36;;;;;;;4.78;3.35;;;11.90;99.90;;;;;;6207535;28;20050;-79
2022/04/24 07:39:37;;;;;;;6.00;3.00;;;12.10;99.90;;;;;;6206649;28;20050;-80
2022/04/24 07:42:52;;;;;;;4.45;2.13;;;12.10;99.90;;;;;;6205367;28;20050;-82
2022/04/24 07:45:53;;;;;;;6.25;2.97;;;12.20;99.90;;;;;;6204421;28;20038;-81
2022/04/24 07:48:55;;;;;;;7.05;2.40;;;12.20;99.90;;;;;;6199068;28;20077;-79
2022/04/24 07:51:57;;;;;;;6.22;2.55;;;12.30;99.90;;;;;;6203560;28;20057;-81
2022/04/24 07:54:59;;;;;;;6.13;2.25;;;12.40;99.90;;;;;;6204494;28;20129;-83
2022/04/24 07:58:02;;;;;;;4.47;2.10;;;12.40;99.90;;;;;;6204761;28;20053;-81
2022/04/24 08:01:04;;;;;;;7.57;2.92;;;12.50;99.90;;;;;;6204315;28;20058;-82
2022/04/24 08:04:06;;;;;;;4.57;2.15;;;12.50;99.90;;;;;;6204998;28;20117;-81
2022/04/24 08:07:10;;;;;;;2.95;1.70;;;12.50;99.90;;;;;;6205859;28;20128;-81
2022/04/24 08:10:12;;;;;;;5.18;2.47;;;12.40;99.90;;;;;;6205414;28;20527;-80
2022/04/24 08:13:16;;;;;;;5.80;2.42;;;12.20;99.90;;;;;;6208081;28;20054;-84
2022/04/24 08:16:17;;;;;;;3.63;2.15;;;12.20;99.90;;;;;;6203021;28;20058;-79
2022/04/24 08:19:21;;;;;;;4.63;0.95;;;12.30;99.90;;;;;;6206970;28;20073;-81
2022/04/24 08:22:22;;;;;;;2.70;1.45;;;12.20;99.90;;;;;;6203706;28;20079;-83
2022/04/24 08:25:26;;;;;;;4.30;1.63;;;12.20;99.90;;;;;;6205752;28;20050;-82
2022/04/24 08:28:33;;;;;;;2.50;1.30;;;12.10;99.90;;;;;;6214277;28;20516;-81
2022/04/24 08:31:35;;;;;;;1.87;0.97;;;12.10;99.90;;;;;;6202362;28;20141;-82
2022/04/24 08:34:37;;;;;;;2.78;0.85;;;12.00;99.90;;;;;;6207031;28;20437;-83
2022/04/24 08:37:40;;;;;;;1.77;1.23;;;11.90;99.90;;;;;;6207868;28;20497;-83
2022/04/24 08:40:42;;;;;;;1.77;0.95;;;11.90;99.90;;;;;;6207494;28;20301;-82
2022/04/24 08:43:45;;;;;;;2.75;1.80;;;12.10;99.90;;;;;;6211996;28;20061;-82
2022/04/24 08:46:47;;;;;;;4.22;1.05;;;12.20;99.90;;;;;;6206728;28;20554;-81
2022/04/24 08:49:49;;;;;;;5.68;1.60;;;12.20;99.90;;;;;;6206826;28;20042;-83
2022/04/24 08:52:51;;;;;;;2.40;1.25;;;12.30;99.90;;;;;;6202226;28;20050;-82
2022/04/24 08:55:53;;;;;;;0.65;0.50;;;12.40;99.90;;;;;;6208749;28;20046;-83
2022/04/24 08:58:56;;;;;;;2.40;1.10;;;12.40;99.90;;;;;;6208874;28;20065;-82
2022/04/24 09:01:59;;;;;;;2.17;0.93;;;12.30;99.90;;;;;;6204629;28;20050;-83
2022/04/24 09:05:03;;;;;;;2.50;1.15;;;12.20;99.90;;;;;;6206871;28;20057;-82
2022/04/24 09:08:07;;;;;;;2.95;0.70;;;12.20;99.90;;;;;;6207276;28;20042;-82
2022/04/24 09:11:09;;;;;;;4.35;0.88;;;12.20;99.90;;;;;;6206762;28;20054;-80
2022/04/24 09:14:19;;;;;;;1.05;0.75;;;12.20;99.90;;;;;;6208780;28;20174;-83
2022/04/24 09:17:22;;;;;;;3.45;1.05;;;12.20;99.90;;;;;;6208246;28;20054;-83
2022/04/24 09:20:23;;;;;;;1.90;0.80;;;12.30;99.90;;;;;;6207838;28;20050;-81
2022/04/24 09:23:47;;;;;;;4.07;0.98;;;12.20;99.90;;;;;;6209908;28;20054;-80
2022/04/24 09:26:53;;;;;;;1.88;0.88;;;12.30;99.90;;;;;;6214321;28;20066;-82
2022/04/24 09:29:59;;;;;;;2.33;0.77;;;12.20;99.90;;;;;;6209804;28;20074;-82
2022/04/24 09:33:01;;;;;;;1.23;0.75;;;12.20;99.90;;;;;;6208741;28;20058;-82
2022/04/24 09:36:03;;;;;;;7.55;0.80;;;12.20;99.90;;;;;;6212204;28;20050;-82
2022/04/24 09:39:05;;;;;;;2.65;0.60;;;12.10;99.90;;;;;;6211734;28;20053;-81
2022/04/24 09:42:08;;;;;;;3.42;0.70;;;12.10;99.90;;;;;;6212093;28;20046;-81
2022/04/24 09:45:11;;;;;;;1.13;0.70;;;12.10;99.90;;;;;;6213427;28;20129;-80
2022/04/24 09:48:14;;;;;;;2.53;0.85;;;12.20;99.90;;;;;;6206472;28;20065;-81
2022/04/24 09:51:17;;;;;;;0.95;0.50;;;12.30;99.90;;;;;;6204478;28;20058;-81
2022/04/24 09:54:19;;;;;;;0.80;0.38;;;12.30;99.90;;;;;;6206554;28;20054;-79
2022/04/24 09:57:24;;;;;;;2.05;0.93;;;12.20;99.90;;;;;;6205648;28;20394;-83
2022/04/24 10:00:27;;;;;;;7.82;0.52;;;12.00;99.90;;;;;;6206503;28;20053;-83
2022/04/24 10:03:29;;;;;;;3.30;0.70;;;11.80;99.90;;;;;;6208932;28;20137;-81
2022/04/24 10:06:32;;;;;;;1.90;0.82;;;11.70;99.90;;;;;;6205693;28;20082;-81
2022/04/24 10:09:35;;;;;;;3.63;1.38;;;11.60;99.90;;;;;;6207290;28;20122;-78
2022/04/24 10:12:37;;;;;;;1.67;1.58;;;11.60;99.90;;;;;;6202089;28;20051;-83
2022/04/24 10:15:49;;;;;;;14.63;7.65;;;11.70;99.90;;;;;;6213655;28;20110;-83
2022/04/24 10:18:57;;;;;;;11.45;8.18;;;11.80;99.90;;;;;;6213435;28;20057;-83
2022/04/24 10:22:07;;;;;;;12.40;6.97;;;11.90;99.90;;;;;;6211602;28;20102;-84
2022/04/24 10:25:09;;;;;;;21.27;12.18;;;11.90;99.90;;;;;;6209892;28;20086;-81
2022/04/24 10:28:13;;;;;;;10.05;4.65;;;11.80;99.90;;;;;;6210128;28;20093;-81
2022/04/24 10:31:17;;;;;;;17.73;8.93;;;12.00;99.90;;;;;;6211484;28;20046;-83
2022/04/24 10:34:20;;;;;;;87.15;39.33;;;12.00;99.90;;;;;;6211604;28;20054;-81
2022/04/24 10:37:33;;;;;;;16.95;8.88;;;12.00;99.90;;;;;;6213558;28;20050;-84
2022/04/24 10:40:35;;;;;;;3.35;1.70;;;12.10;99.90;;;;;;6212653;28;20065;-83
2022/04/24 10:43:38;;;;;;;4.28;1.70;;;12.20;99.90;;;;;;6210830;28;20070;-80
2022/04/24 10:46:43;;;;;;;1.27;0.80;;;12.20;99.90;;;;;;6210737;28;20105;-83
2022/04/24 10:49:44;;;;;;;1.55;0.80;;;12.10;99.90;;;;;;6209986;28;20101;-80
2022/04/24 10:52:48;;;;;;;6.38;1.27;;;12.10;99.90;;;;;;6202525;28;20149;-82
2022/04/24 10:55:50;;;;;;;4.80;1.80;;;12.10;99.90;;;;;;6209794;28;20042;-83
2022/04/24 10:58:52;;;;;;;1.75;0.90;;;12.20;99.90;;;;;;6210147;28;20042;-83
2022/04/24 11:01:57;;;;;;;2.40;1.10;;;12.10;99.90;;;;;;6210274;28;20468;-83
2022/04/24 11:05:01;;;;;;;1.48;0.70;;;12.10;99.90;;;;;;6211178;28;20384;-83
2022/04/24 11:08:05;;;;;;;1.90;1.65;;;12.20;99.90;;;;;;6209206;28;20508;-83
2022/04/24 11:11:06;;;;;;;5.03;1.10;;;12.30;99.90;;;;;;6209222;28;20046;-83
2022/04/24 11:14:08;;;;;;;1.15;0.70;;;12.40;99.90;;;;;;6209310;28;20069;-83
2022/04/24 11:17:11;;;;;;;1.45;0.90;;;12.30;99.90;;;;;;6209351;28;20793;-83
2022/04/24 11:20:15;;;;;;;1.42;0.60;;;12.30;99.90;;;;;;6208337;28;20105;-83
2022/04/24 11:23:16;;;;;;;1.27;0.60;;;12.40;99.90;;;;;;6210046;28;20101;-81
2022/04/24 11:26:23;;;;;;;1.63;1.15;;;12.40;99.90;;;;;;6210342;28;20078;-82
2022/04/24 11:29:25;;;;;;;2.22;1.00;;;12.50;99.90;;;;;;6209584;28;20113;-82
2022/04/24 11:32:28;;;;;;;2.90;1.75;;;12.50;99.90;;;;;;6209276;28;20467;-81
2022/04/24 11:35:31;;;;;;;11.00;4.35;;;12.60;99.90;;;;;;6210020;28;20050;-83
2022/04/24 11:38:33;;;;;;;5.93;2.75;;;12.70;99.90;;;;;;6209195;28;20129;-83
2022/04/24 11:41:36;;;;;;;4.72;1.42;;;12.70;99.90;;;;;;6209709;28;20069;-80
2022/04/24 11:51:32;;;;;;;1.40;0.90;;;12.60;99.90;;;;;;6133338;29;20051;-81
2022/04/24 11:54:34;;;;;;;11.63;7.03;;;12.60;99.90;;;;;;6196078;28;20046;-82
2022/04/24 11:57:36;;;;;;;4.20;2.20;;;12.50;99.90;;;;;;6208148;28;20120;-82
2022/04/24 12:00:39;;;;;;;1.67;1.20;;;12.50;99.90;;;;;;6208089;28;20133;-81
2022/04/24 12:03:45;;;;;;;2.00;1.35;;;12.50;99.90;;;;;;6208093;28;20050;-81
2022/04/24 12:06:48;;;;;;;2.75;1.88;;;12.60;99.90;;;;;;6207886;28;20062;-81
2022/04/24 12:09:59;;;;;;;3.78;1.42;;;12.70;99.90;;;;;;6207560;28;20053;-81
2022/04/24 12:13:06;;;;;;;3.42;1.10;;;12.80;99.90;;;;;;6211809;28;20070;-81
2022/04/24 12:16:08;;;;;;;1.77;1.20;;;12.80;99.90;;;;;;6211349;28;20054;-81
2022/04/24 12:19:12;;;;;;;1.55;1.23;;;12.80;99.90;;;;;;6213299;28;20058;-80
2022/04/24 12:22:14;;;;;;;2.00;1.10;;;12.80;99.90;;;;;;6210516;28;20058;-80
2022/04/24 12:25:18;;;;;;;1.63;1.05;;;12.80;99.90;;;;;;6209575;28;20153;-82
2022/04/24 12:28:32;;;;;;;3.85;1.48;;;12.80;99.90;;;;;;6208894;28;20065;-82
2022/04/24 12:31:35;;;;;;;3.65;1.60;;;12.90;99.90;;;;;;6207114;28;20053;-82
2022/04/24 12:34:39;;;;;;;2.88;1.55;;;12.80;99.90;;;;;;6209164;28;20154;-80
2022/04/24 12:37:46;;;;;;;5.00;1.27;;;12.80;99.90;;;;;;6207365;28;20158;-81
2022/04/24 12:40:57;;;;;;;4.93;1.60;;;12.90;99.90;;;;;;6207445;28;20070;-82
2022/04/24 12:44:00;;;;;;;4.35;1.90;;;12.80;99.90;;;;;;6206961;28;20121;-83
2022/04/24 12:47:03;;;;;;;4.47;2.10;;;12.80;99.90;;;;;;6205731;28;20141;-83
2022/04/24 12:50:06;;;;;;;2.72;2.08;;;12.90;99.90;;;;;;6206599;28;20050;-81
2022/04/24 12:53:08;;;;;;;3.13;2.03;;;13.00;99.90;;;;;;6206698;28;20050;-80
2022/04/24 12:56:10;;;;;;;2.63;1.75;;;13.10;99.90;;;;;;6200239;28;20074;-81
2022/04/24 12:59:12;;;;;;;9.32;2.10;;;13.20;99.90;;;;;;6208668;28;20138;-78
2022/04/24 13:02:14;;;;;;;5.28;2.05;;;13.10;99.90;;;;;;6210844;28;20098;-80
2022/04/24 13:05:17;;;;;;;2.75;2.17;;;13.00;99.90;;;;;;6207281;28;20083;-80
2022/04/24 13:08:19;;;;;;;3.80;2.60;;;13.00;99.90;;;;;;6207890;28;20054;-82
2022/04/24 13:11:23;;;;;;;3.45;2.50;;;13.20;99.90;;;;;;6206610;28;20110;-81
2022/04/24 13:14:25;;;;;;;5.60;2.65;;;13.30;99.90;;;;;;6204323;28;20046;-82
2022/04/24 13:20:47;;;;;;;2.97;1.55;;;13.60;99.90;;;;;;6203820;28;20089;-78
2022/04/24 13:23:49;;;;;;;6.20;1.88;;;13.60;99.90;;;;;;6202924;28;20051;-85
2022/04/24 13:26:51;;;;;;;3.92;2.28;;;13.60;99.90;;;;;;6214720;28;20365;-83
2022/04/24 13:29:53;;;;;;;2.22;1.98;;;13.60;99.90;;;;;;6209350;28;20054;-81
2022/04/24 13:32:55;;;;;;;3.65;1.90;;;13.50;99.90;;;;;;6204752;28;20061;-80
2022/04/24 13:36:00;;;;;;;2.72;1.65;;;13.40;99.70;;;;;;6202648;28;20053;-83
2022/04/24 13:39:01;;;;;;;3.28;2.15;;;13.40;99.90;;;;;;6202235;28;20061;-83
2022/04/24 13:42:06;;;;;;;3.00;2.45;;;13.40;99.50;;;;;;6205006;28;20047;-82
2022/04/24 13:45:08;;;;;;;4.25;2.15;;;13.40;99.70;;;;;;6208475;28;20066;-82
2022/04/24 13:48:11;;;;;;;2.50;1.70;;;13.50;99.90;;;;;;6210410;28;20101;-85
2022/04/24 13:51:15;;;;;;;5.63;2.30;;;13.60;99.60;;;;;;6208769;28;20074;-82
2022/04/24 13:54:18;;;;;;;2.95;1.95;;;13.70;99.50;;;;;;6207498;28;20137;-81
2022/04/24 13:57:19;;;;;;;5.28;2.30;;;13.70;99.00;;;;;;6205472;28;20030;-78
2022/04/24 14:00:21;;;;;;;6.35;2.78;;;13.60;98.90;;;;;;6226168;28;20065;-80
2022/04/24 14:03:25;;;;;;;4.93;3.17;;;13.40;99.20;;;;;;6225914;28;20066;-81
2022/04/24 14:06:28;;;;;;;4.82;2.63;;;13.50;99.30;;;;;;6225591;28;20050;-78
2022/04/24 14:09:30;;;;;;;5.03;2.50;;;13.50;99.50;;;;;;6221958;28;20081;-82
2022/04/24 14:12:32;;;;;;;5.10;3.15;;;13.40;99.00;;;;;;6219715;28;20427;-80
2022/04/24 14:15:34;;;;;;;6.25;3.40;;;13.40;99.40;;;;;;6210947;28;20042;-82
2022/04/24 14:18:35;;;;;;;8.32;2.92;;;13.30;99.40;;;;;;6210004;28;20082;-84
2022/04/24 14:21:39;;;;;;;4.63;3.00;;;13.30;99.40;;;;;;6209843;28;20125;-84
2022/04/24 14:24:40;;;;;;;7.55;2.90;;;13.20;99.40;;;;;;6209656;28;20047;-82
2022/04/24 14:27:42;;;;;;;3.65;3.00;;;13.20;99.80;;;;;;6209191;28;20555;-81
2022/04/24 14:30:46;;;;;;;6.13;3.55;;;13.30;99.70;;;;;;6208626;28;20089;-84
2022/04/24 14:33:47;;;;;;;6.03;2.80;;;13.30;99.50;;;;;;6208174;28;20129;-83
2022/04/24 14:36:50;;;;;;;3.33;2.65;;;13.30;99.50;;;;;;6209179;28;20056;-83
2022/04/24 14:39:53;;;;;;;4.85;3.25;;;13.20;99.40;;;;;;6208250;28;20050;-84
2022/04/24 14:42:55;;;;;;;4.22;2.70;;;13.20;99.30;;;;;;6209082;28;20117;-83
2022/04/24 14:55:56;;;;;;;6.32;3.45;;;13.20;99.30;;;;;;6205191;28;20046;-80
2022/04/24 14:58:58;;;;;;;3.70;2.90;;;13.20;99.40;;;;;;6186540;28;20122;-80
2022/04/24 15:01:59;;;;;;;6.47;3.33;;;13.20;99.30;;;;;;6183417;28;20042;-81
2022/04/24 15:05:01;;;;;;;5.25;3.35;;;13.20;99.30;;;;;;6184169;28;20493;-82
2022/04/24 15:08:05;;;;;;;5.45;3.13;;;13.20;99.50;;;;;;6184560;28;20046;-81
2022/04/24 15:11:07;;;;;;;5.13;3.35;;;13.30;99.00;;;;;;6183172;28;20070;-80
2022/04/24 15:14:09;;;;;;;4.13;2.47;;;13.20;99.20;;;;;;6185004;28;20047;-81
2022/04/24 15:17:11;;;;;;;3.65;2.42;;;13.20;99.20;;;;;;6185646;28;20141;-80
2022/04/24 15:20:13;;;;;;;3.75;2.38;;;13.20;99.10;;;;;;6203863;28;20098;-82
2022/04/24 15:23:16;;;;;;;4.82;3.08;;;13.20;99.10;;;;;;6208590;28;20597;-81
2022/04/24 15:26:18;;;;;;;7.55;3.03;;;13.20;99.30;;;;;;6207751;28;20057;-82
2022/04/24 15:29:20;;;;;;;6.47;3.40;;;13.20;99.30;;;;;;6208521;28;20058;-82
2022/04/24 15:32:23;;;;;;;6.00;4.05;;;13.20;99.40;;;;;;6207305;28;20201;-83
2022/04/24 15:35:25;;;;;;;6.75;3.50;;;13.30;99.40;;;;;;6207932;28;20046;-81
2022/04/24 15:38:28;;;;;;;8.25;3.88;;;13.30;99.20;;;;;;6207551;28;20108;-83
2022/04/24 15:41:32;;;;;;;10.25;4.07;;;13.20;99.40;;;;;;6207624;28;20058;-85
2022/04/24 15:45:10;;;;;;;5.45;3.13;;;13.20;99.60;;;;;;6206696;28;20158;-85
2022/04/24 15:47:57;;;;;;;11.50;4.85;;;13.20;99.50;;;;;;6210575;28;20042;-82
2022/04/24 15:51:01;;;;;;;43.72;14.18;;;13.20;99.50;;;;;;6214224;28;20060;-82
2022/04/24 15:54:05;;;;;;;6.78;3.83;;;13.10;99.80;;;;;;6208367;28;20109;-84
2022/04/24 15:57:07;;;;;;;7.40;4.45;;;13.10;99.80;;;;;;6206244;28;20054;-83
2022/04/24 16:00:11;;;;;;;6.03;3.97;;;13.10;99.90;;;;;;6189682;28;20043;-83
2022/04/24 16:03:13;;;;;;;6.88;3.75;;;13.10;99.90;;;;;;6188548;28;20058;-84
2022/04/24 16:06:15;;;;;;;5.35;3.33;;;13.10;99.90;;;;;;6189584;28;20058;-83